TBD775 ENEV-ENSK
Flight info
| Callsign | TBD775 |
|---|---|
| Flight time | 0h 19m |
| Altitude | 11000 |
| Route | FUPAC |
| Aircraft | TBM8/L-SBDFGRWY/G |
Departure
| Time | 2026-04-24 11:57 |
|---|---|
| Airport | Harstad/Narvik Airport (ENEV) |
Arrival
| Time | 2026-04-24 12:16 |
|---|---|
| Airport | Stokmarknes Airport, Skagen (ENSK) |
| Time | Latitude | Longitude | Altitude | Speed | Heading |
|---|---|---|---|---|---|
| 2026-04-24 11:43 | 68.48983 | 16.68844 | 114 ft | 0 kts | 358° |
| 2026-04-24 11:52 | 68.48977 | 16.68855 | 90 ft | 7 kts | 239° |
| 2026-04-24 11:53 | 68.48893 | 16.68767 | 87 ft | 19 kts | 273° |
| 2026-04-24 11:53 | 68.48891 | 16.68477 | 87 ft | 14 kts | 272° |
| 2026-04-24 11:53 | 68.48874 | 16.68237 | 82 ft | 14 kts | 204° |
| 2026-04-24 11:53 | 68.48757 | 16.68236 | 82 ft | 19 kts | 183° |
| 2026-04-24 11:54 | 68.48677 | 16.68252 | 84 ft | 6 kts | 175° |
| 2026-04-24 11:54 | 68.48614 | 16.68256 | 87 ft | 16 kts | 181° |
| 2026-04-24 11:54 | 68.48481 | 16.68269 | 94 ft | 23 kts | 174° |
| 2026-04-24 11:54 | 68.48338 | 16.68288 | 97 ft | 23 kts | 180° |
| 2026-04-24 11:55 | 68.48170 | 16.68306 | 97 ft | 23 kts | 179° |
| 2026-04-24 11:55 | 68.48047 | 16.68324 | 95 ft | 17 kts | 181° |
| 2026-04-24 11:55 | 68.47918 | 16.68285 | 93 ft | 14 kts | 240° |
| 2026-04-24 11:55 | 68.47907 | 16.67981 | 84 ft | 15 kts | 321° |
| 2026-04-24 11:56 | 68.47935 | 16.67965 | 84 ft | 0 kts | 354° |
| 2026-04-24 11:56 | 68.48057 | 16.67950 | 86 ft | 51 kts | 358° |
| 2026-04-24 11:56 | 68.48608 | 16.67912 | 175 ft | 99 kts | 358° |
| 2026-04-24 11:56 | 68.49393 | 16.67949 | 444 ft | 127 kts | 359° |
| 2026-04-24 11:57 | 68.50273 | 16.67914 | 1098 ft | 126 kts | 357° |
| 2026-04-24 11:57 | 68.51148 | 16.67715 | 1859 ft | 128 kts | 355° |
| 2026-04-24 11:57 | 68.52045 | 16.67453 | 2575 ft | 131 kts | 356° |
| 2026-04-24 11:57 | 68.52958 | 16.67413 | 3264 ft | 131 kts | 1° |
| 2026-04-24 11:58 | 68.53877 | 16.67470 | 3911 ft | 134 kts | 0° |
| 2026-04-24 11:58 | 68.54842 | 16.67225 | 4507 ft | 140 kts | 349° |
| 2026-04-24 11:58 | 68.55808 | 16.66764 | 5136 ft | 141 kts | 356° |
| 2026-04-24 11:58 | 68.56749 | 16.66820 | 5946 ft | 133 kts | 3° |
| 2026-04-24 11:59 | 68.57705 | 16.67040 | 6480 ft | 143 kts | 3° |
| 2026-04-24 11:59 | 68.58699 | 16.67200 | 7107 ft | 141 kts | 358° |
| 2026-04-24 11:59 | 68.59653 | 16.67179 | 7800 ft | 137 kts | 356° |
| 2026-04-24 11:59 | 68.60626 | 16.66955 | 8284 ft | 145 kts | 347° |
| 2026-04-24 12:00 | 68.61512 | 16.65714 | 8853 ft | 142 kts | 313° |
| 2026-04-24 12:00 | 68.61755 | 16.63109 | 9322 ft | 159 kts | 263° |
| 2026-04-24 12:00 | 68.61270 | 16.60399 | 9970 ft | 155 kts | 256° |
| 2026-04-24 12:00 | 68.60968 | 16.57593 | 10569 ft | 149 kts | 265° |
| 2026-04-24 12:01 | 68.60808 | 16.54825 | 10971 ft | 160 kts | 271° |
| 2026-04-24 12:01 | 68.60761 | 16.51341 | 10784 ft | 194 kts | 274° |
| 2026-04-24 12:01 | 68.60722 | 16.47519 | 10809 ft | 209 kts | 273° |
| 2026-04-24 12:01 | 68.60636 | 16.43490 | 10913 ft | 217 kts | 267° |
| 2026-04-24 12:02 | 68.60279 | 16.39332 | 10826 ft | 230 kts | 258° |
| 2026-04-24 12:02 | 68.59767 | 16.35129 | 10860 ft | 236 kts | 255° |
| 2026-04-24 12:02 | 68.59260 | 16.30890 | 10935 ft | 235 kts | 258° |
| 2026-04-24 12:02 | 68.58790 | 16.26608 | 10972 ft | 236 kts | 258° |
| 2026-04-24 12:03 | 68.58475 | 16.22179 | 10932 ft | 237 kts | 268° |
| 2026-04-24 12:03 | 68.58393 | 16.17669 | 10867 ft | 239 kts | 274° |
| 2026-04-24 12:03 | 68.58522 | 16.13188 | 10998 ft | 232 kts | 280° |
| 2026-04-24 12:03 | 68.58646 | 16.08630 | 10837 ft | 239 kts | 275° |
| 2026-04-24 12:04 | 68.58608 | 16.04150 | 10885 ft | 238 kts | 265° |
| 2026-04-24 12:04 | 68.58173 | 15.99733 | 10883 ft | 242 kts | 254° |
| 2026-04-24 12:04 | 68.57437 | 15.95519 | 10874 ft | 246 kts | 245° |
| 2026-04-24 12:04 | 68.56520 | 15.91582 | 10842 ft | 246 kts | 242° |
| 2026-04-24 12:05 | 68.55596 | 15.87670 | 10858 ft | 245 kts | 243° |
| 2026-04-24 12:05 | 68.54758 | 15.83623 | 10822 ft | 244 kts | 248° |
| 2026-04-24 12:05 | 68.54042 | 15.79463 | 10822 ft | 243 kts | 251° |
| 2026-04-24 12:05 | 68.53354 | 15.75244 | 10903 ft | 239 kts | 246° |
| 2026-04-24 12:06 | 68.52450 | 15.71337 | 10736 ft | 247 kts | 242° |
| 2026-04-24 12:06 | 68.51546 | 15.67375 | 10842 ft | 243 kts | 244° |
| 2026-04-24 12:06 | 68.50713 | 15.63325 | 10635 ft | 251 kts | 247° |
| 2026-04-24 12:06 | 68.49907 | 15.59121 | 10566 ft | 249 kts | 248° |
| 2026-04-24 12:07 | 68.49140 | 15.54884 | 10459 ft | 248 kts | 249° |
| 2026-04-24 12:07 | 68.48375 | 15.50664 | 10278 ft | 251 kts | 247° |
| 2026-04-24 12:07 | 68.47587 | 15.46406 | 10050 ft | 252 kts | 248° |
| 2026-04-24 12:07 | 68.46785 | 15.42169 | 9779 ft | 253 kts | 247° |
| 2026-04-24 12:08 | 68.45979 | 15.37891 | 9512 ft | 254 kts | 247° |
| 2026-04-24 12:08 | 68.45170 | 15.33623 | 9301 ft | 252 kts | 247° |
| 2026-04-24 12:08 | 68.44350 | 15.29432 | 9057 ft | 252 kts | 244° |
| 2026-04-24 12:08 | 68.43452 | 15.25375 | 9014 ft | 246 kts | 242° |
| 2026-04-24 12:09 | 68.42569 | 15.21440 | 8890 ft | 245 kts | 242° |
| 2026-04-24 12:09 | 68.41648 | 15.17486 | 8649 ft | 247 kts | 240° |
| 2026-04-24 12:09 | 68.40691 | 15.13670 | 8609 ft | 244 kts | 239° |
| 2026-04-24 12:09 | 68.39669 | 15.09879 | 8407 ft | 247 kts | 236° |
| 2026-04-24 12:10 | 68.38851 | 15.05945 | 8060 ft | 231 kts | 260° |
| 2026-04-24 12:10 | 68.38714 | 15.01727 | 7417 ft | 223 kts | 271° |
| 2026-04-24 12:10 | 68.38969 | 14.97843 | 7279 ft | 199 kts | 301° |
| 2026-04-24 12:11 | 68.41224 | 14.94985 | 6787 ft | 195 kts | 14° |
| 2026-04-24 12:11 | 68.42573 | 14.95861 | 6258 ft | 203 kts | 7° |
| 2026-04-24 12:11 | 68.43975 | 14.96189 | 5832 ft | 200 kts | 3° |
| 2026-04-24 12:11 | 68.45379 | 14.96876 | 5027 ft | 209 kts | 13° |
| 2026-04-24 12:12 | 68.46792 | 14.97809 | 4347 ft | 207 kts | 12° |
| 2026-04-24 12:12 | 68.48188 | 14.98552 | 3765 ft | 202 kts | 10° |
| 2026-04-24 12:12 | 68.49540 | 14.99264 | 3335 ft | 195 kts | 11° |
| 2026-04-24 12:12 | 68.50854 | 14.99671 | 3003 ft | 188 kts | 2° |
| 2026-04-24 12:13 | 68.52174 | 14.99777 | 2509 ft | 191 kts | 4° |
| 2026-04-24 12:13 | 68.53478 | 15.00139 | 1903 ft | 183 kts | 8° |
| 2026-04-24 12:13 | 68.54640 | 15.00379 | 1609 ft | 157 kts | 355° |
| 2026-04-24 12:13 | 68.55664 | 14.99656 | 1236 ft | 144 kts | 341° |
| 2026-04-24 12:14 | 68.56543 | 14.98734 | 1116 ft | 123 kts | 331° |
| 2026-04-24 12:14 | 68.56859 | 14.97537 | 1097 ft | 119 kts | 292° |
| 2026-04-24 12:14 | 68.57043 | 14.94584 | 959 ft | 116 kts | 278° |
| 2026-04-24 12:14 | 68.57155 | 14.93173 | 932 ft | 111 kts | 300° |
| 2026-04-24 12:15 | 68.57795 | 14.91811 | 755 ft | 123 kts | 3° |
| 2026-04-24 12:15 | 68.58219 | 14.93242 | 822 ft | 121 kts | 92° |
| 2026-04-24 12:15 | 68.58138 | 14.95629 | 579 ft | 122 kts | 86° |
| 2026-04-24 12:15 | 68.58113 | 14.97775 | 373 ft | 108 kts | 88° |
| 2026-04-24 12:16 | 68.58096 | 14.99741 | 210 ft | 99 kts | 89° |
| 2026-04-24 12:16 | 68.58085 | 15.01530 | 22 ft | 87 kts | 95° |
| 2026-04-24 12:16 | 68.58077 | 15.02781 | 14 ft | 37 kts | 92° |
| 2026-04-24 12:16 | 68.58013 | 15.03052 | 17 ft | 17 kts | 186° |
| 2026-04-24 12:17 | 68.57983 | 15.03082 | 17 ft | 0 kts | 83° |